Time;durP1;ratioP1;P1;durP2;ratioP2;P2;SDS_P1;SDS_P2;PMS_P1;PMS_P2;Temp;Humidity;BMP_temperature;BMP_pressure;BME280_temperature;BME280_humidity;BME280_pressure;Samples;Min_cycle;Max_cycle;Signal;HPM_P1;HPM_P2
2023/07/31 00:01:10;;;;;;;16.17;7.75;;;;;;;17.99;100.00;100972.31;5279840;28;20028;-74
2023/07/31 00:03:41;;;;;;;17.02;7.35;;;;;;;17.95;100.00;100965.69;5286766;28;20060;-74
2023/07/31 00:06:13;;;;;;;18.42;6.80;;;;;;;17.99;100.00;100974.97;5276916;28;20032;-72
2023/07/31 00:08:44;;;;;;;13.80;6.88;;;;;;;17.95;100.00;100967.50;5284088;28;20030;-75
2023/07/31 00:11:15;;;;;;;16.20;7.30;;;;;;;17.96;100.00;100969.19;5283506;28;20192;-75
2023/07/31 00:13:46;;;;;;;13.40;6.40;;;;;;;17.94;100.00;100968.53;5290563;28;20078;-75
2023/07/31 00:16:18;;;;;;;16.33;6.90;;;;;;;17.96;100.00;100969.19;5283169;28;20025;-73
2023/07/31 00:18:49;;;;;;;16.17;6.25;;;;;;;17.94;100.00;100973.81;5283204;28;20028;-75
2023/07/31 00:21:20;;;;;;;14.80;6.43;;;;;;;17.88;100.00;100961.25;5284535;28;20038;-75
2023/07/31 00:23:52;;;;;;;15.73;5.95;;;;;;;17.94;100.00;100976.47;5280814;28;20028;-72
2023/07/31 00:26:23;;;;;;;15.88;7.20;;;;;;;17.98;100.00;100969.81;5282916;28;20136;-76
2023/07/31 00:28:54;;;;;;;18.45;6.93;;;;;;;18.00;100.00;100962.53;5287620;28;20055;-74
2023/07/31 00:31:26;;;;;;;18.10;6.90;;;;;;;17.90;100.00;100956.63;5288748;28;20031;-74
2023/07/31 00:33:58;;;;;;;13.82;6.43;;;;;;;17.93;100.00;100962.41;5280699;28;20040;-73
2023/07/31 00:36:29;;;;;;;19.10;7.18;;;;;;;17.98;100.00;100967.16;5281860;28;20435;-75
2023/07/31 00:39:00;;;;;;;20.15;6.72;;;;;;;17.92;100.00;100965.25;5281472;28;20492;-72
2023/07/31 00:41:31;;;;;;;17.58;6.90;;;;;;;17.97;100.00;100961.03;5284982;28;20476;-75
2023/07/31 00:44:03;;;;;;;16.02;6.25;;;;;;;17.93;100.00;100950.97;5284719;28;20093;-76
2023/07/31 00:46:34;;;;;;;13.60;6.25;;;;;;;17.94;100.00;100955.28;5270037;28;20059;-75
2023/07/31 00:49:06;;;;;;;17.02;5.75;;;;;;;17.99;100.00;100960.84;5277959;28;20028;-75
2023/07/31 00:51:37;;;;;;;16.05;5.85;;;;;;;18.00;100.00;100959.88;5284495;28;20020;-74
2023/07/31 00:54:09;;;;;;;14.95;5.85;;;;;;;18.02;100.00;100957.03;5286636;28;20028;-75
2023/07/31 00:56:41;;;;;;;12.00;4.97;;;;;;;18.02;100.00;100962.34;5284740;28;20027;-75
2023/07/31 00:59:12;;;;;;;13.35;6.15;;;;;;;18.02;100.00;100952.56;5288362;28;20113;-75
2023/07/31 01:01:44;;;;;;;16.27;6.22;;;;;;;18.02;100.00;100952.56;5281543;28;20070;-72
2023/07/31 01:04:18;;;;;;;11.68;5.10;;;;;;;17.97;100.00;100952.28;5282884;28;20043;-76
2023/07/31 01:07:13;;;;;;;15.48;6.20;;;;;;;18.23;100.00;100941.31;5283383;28;20058;-75
2023/07/31 01:09:55;;;;;;;15.82;6.03;;;;;;;18.01;100.00;100940.31;5286903;28;20038;-75
2023/07/31 01:12:29;;;;;;;12.00;5.65;;;;;;;17.90;100.00;100943.38;5291292;28;20024;-75
2023/07/31 01:15:11;;;;;;;11.63;5.40;;;;;;;18.07;100.00;100949.38;5285834;28;20035;-74
2023/07/31 01:17:43;;;;;;;14.18;5.28;;;;;;;17.95;100.00;100941.00;5274982;28;20035;-74
2023/07/31 01:20:18;;;;;;;11.88;4.97;;;;;;;18.00;100.00;100941.31;5284969;28;20019;-72
2023/07/31 01:23:08;;;;;;;14.05;5.80;;;;;;;18.08;100.00;100940.44;5283415;28;20066;-75
2023/07/31 01:26:01;;;;;;;12.05;5.50;;;;;;;18.16;100.00;100943.03;5284706;28;20497;-74
2023/07/31 01:29:11;;;;;;;14.38;6.10;;;;;;;18.18;100.00;100946.31;5264438;22;20057;-69
2023/07/31 01:31:47;;;;;;;13.30;6.00;;;;;;;17.87;100.00;100939.22;5264367;28;20393;-70
2023/07/31 01:34:21;;;;;;;14.88;6.13;;;;;;;17.83;100.00;100953.03;5255691;28;20028;-69
2023/07/31 01:36:52;;;;;;;11.60;5.32;;;;;;;17.86;100.00;100953.50;5259991;28;20104;-69
2023/07/31 01:39:23;;;;;;;11.48;5.95;;;;;;;17.82;100.00;100936.28;5263690;28;20132;-68
2023/07/31 01:41:55;;;;;;;15.50;5.75;;;;;;;17.84;100.00;100939.59;5262398;28;20094;-68
2023/07/31 01:44:27;;;;;;;14.50;5.65;;;;;;;17.84;100.00;100941.41;5256154;28;20477;-68
2023/07/31 01:47:00;;;;;;;16.20;6.70;;;;;;;17.75;100.00;100941.47;5262849;28;20520;-68
2023/07/31 01:49:31;;;;;;;14.10;6.15;;;;;;;17.83;100.00;100937.13;5260774;28;20037;-68
2023/07/31 01:52:02;;;;;;;15.18;5.85;;;;;;;17.82;100.00;100933.66;5254997;28;20393;-68
2023/07/31 01:54:34;;;;;;;16.85;6.43;;;;;;;17.78;100.00;100932.34;5263766;28;20474;-68
2023/07/31 01:57:05;;;;;;;13.98;6.25;;;;;;;17.72;100.00;100930.34;5258695;28;20083;-68
2023/07/31 01:59:37;;;;;;;14.68;6.10;;;;;;;17.75;100.00;100932.69;5260278;28;20056;-68
2023/07/31 02:02:08;;;;;;;15.05;5.65;;;;;;;17.70;100.00;100914.66;5266939;28;20029;-68
2023/07/31 02:04:40;;;;;;;16.17;6.30;;;;;;;17.74;100.00;100913.28;5267104;28;20172;-68
2023/07/31 02:07:12;;;;;;;12.32;5.53;;;;;;;17.71;100.00;100910.16;5257861;28;20029;-68
2023/07/31 02:09:43;;;;;;;13.68;6.93;;;;;;;17.69;100.00;100905.06;5265508;28;20028;-68
2023/07/31 02:12:14;;;;;;;15.45;6.18;;;;;;;17.70;100.00;100909.34;5267096;28;20501;-68
2023/07/31 02:14:46;;;;;;;15.93;6.28;;;;;;;17.66;100.00;100900.09;5259247;28;20028;-68
2023/07/31 02:17:17;;;;;;;13.65;6.22;;;;;;;17.63;100.00;100895.13;5262349;28;20369;-68
2023/07/31 02:19:48;;;;;;;14.88;5.65;;;;;;;17.63;100.00;100900.44;5261173;28;20485;-68
2023/07/31 02:22:20;;;;;;;13.27;5.65;;;;;;;17.62;100.00;100900.63;5261171;28;20056;-69
2023/07/31 02:24:51;;;;;;;19.55;7.25;;;;;;;17.60;100.00;100886.72;5262461;28;20104;-68
2023/07/31 02:27:27;;;;;;;14.98;6.07;;;;;;;17.61;100.00;100880.41;5264347;28;20499;-69
2023/07/31 02:29:59;;;;;;;13.63;6.57;;;;;;;17.57;100.00;100893.19;5259339;28;20025;-68
2023/07/31 02:32:30;;;;;;;13.77;6.55;;;;;;;17.57;100.00;100879.94;5256300;28;20118;-68
2023/07/31 02:35:02;;;;;;;11.95;6.00;;;;;;;17.59;100.00;100888.53;5260820;28;20135;-68
2023/07/31 02:37:33;;;;;;;10.77;4.88;;;;;;;17.51;100.00;100885.94;5257286;28;20387;-68
2023/07/31 02:40:05;;;;;;;14.73;6.13;;;;;;;17.48;100.00;100868.56;5261491;28;20088;-68
2023/07/31 02:42:36;;;;;;;10.80;5.95;;;;;;;17.51;100.00;100868.22;5264336;28;20070;-68
2023/07/31 02:45:08;;;;;;;13.18;5.78;;;;;;;17.49;100.00;100872.03;5261626;28;20029;-68
2023/07/31 02:47:39;;;;;;;12.80;6.25;;;;;;;17.53;100.00;100873.34;5260428;28;20070;-67
2023/07/31 02:50:11;;;;;;;12.55;6.32;;;;;;;17.50;100.00;100871.88;5265093;28;20132;-68
2023/07/31 02:52:42;;;;;;;11.27;5.68;;;;;;;17.55;100.00;100878.47;5263880;28;20025;-67
2023/07/31 02:55:13;;;;;;;14.57;6.35;;;;;;;17.57;100.00;100868.53;5268303;28;20021;-67
2023/07/31 02:57:45;;;;;;;13.38;6.15;;;;;;;17.51;100.00;100870.06;5264718;28;20032;-67
2023/07/31 03:00:16;;;;;;;12.43;6.65;;;;;;;17.53;100.00;100878.63;5259348;28;20032;-67
2023/07/31 03:02:47;;;;;;;14.18;6.00;;;;;;;17.51;100.00;100867.41;5267978;28;20094;-67
2023/07/31 03:05:19;;;;;;;17.13;6.28;;;;;;;17.47;100.00;100864.28;5256350;28;20103;-67
2023/07/31 03:07:50;;;;;;;14.18;6.57;;;;;;;17.47;100.00;100871.41;5253167;28;20028;-67
2023/07/31 03:10:21;;;;;;;12.17;6.00;;;;;;;17.50;100.00;100871.03;5260121;28;20114;-67
2023/07/31 03:12:52;;;;;;;10.15;5.53;;;;;;;17.44;100.00;100861.97;5260974;28;20294;-67
2023/07/31 03:15:24;;;;;;;11.90;5.88;;;;;;;17.47;100.00;100869.56;5258827;28;20393;-67
2023/07/31 03:17:55;;;;;;;14.75;6.55;;;;;;;17.44;100.00;100869.09;5261591;28;20408;-67
2023/07/31 03:20:26;;;;;;;14.10;6.03;;;;;;;17.44;100.00;100866.44;5259229;28;20311;-67
2023/07/31 03:22:57;;;;;;;14.73;6.05;;;;;;;17.41;100.00;100864.16;5261742;28;20401;-67
2023/07/31 03:25:29;;;;;;;13.13;6.30;;;;;;;17.47;100.00;100860.81;5258792;28;20111;-67
2023/07/31 03:28:00;;;;;;;14.40;6.60;;;;;;;17.44;100.00;100858.50;5265018;28;20115;-67
2023/07/31 03:30:31;;;;;;;10.50;4.82;;;;;;;17.43;100.00;100857.69;5260014;28;20401;-67
2023/07/31 03:33:02;;;;;;;11.90;5.93;;;;;;;17.43;100.00;100851.56;5267419;28;20137;-67
2023/07/31 03:35:34;;;;;;;16.63;6.47;;;;;;;17.44;100.00;100845.25;5261322;28;20060;-67
2023/07/31 03:38:05;;;;;;;12.48;5.40;;;;;;;17.44;100.00;100838.13;5259515;28;20151;-67
2023/07/31 03:40:36;;;;;;;14.40;5.30;;;;;;;17.51;100.00;100846.22;5263292;28;20013;-67
2023/07/31 03:43:08;;;;;;;16.02;6.28;;;;;;;17.50;100.00;100841.91;5259712;28;20041;-67
2023/07/31 03:45:39;;;;;;;15.75;6.50;;;;;;;17.50;100.00;100839.25;5260437;28;20111;-67
2023/07/31 03:48:10;;;;;;;15.15;5.45;;;;;;;17.52;100.00;100835.44;5260690;28;20025;-67
2023/07/31 03:50:42;;;;;;;13.65;5.60;;;;;;;17.52;100.00;100834.63;5264623;28;21281;-67
2023/07/31 03:53:13;;;;;;;14.50;5.55;;;;;;;17.55;100.00;100834.25;5265080;28;20434;-67
2023/07/31 03:55:44;;;;;;;13.98;5.30;;;;;;;17.55;100.00;100826.31;5263468;28;20340;-67
2023/07/31 03:58:16;;;;;;;13.20;5.63;;;;;;;17.57;100.00;100816.34;5270633;28;20547;-67
2023/07/31 04:00:47;;;;;;;11.32;5.47;;;;;;;17.65;100.00;100821.63;5267473;28;20074;-67
2023/07/31 04:03:18;;;;;;;15.77;5.47;;;;;;;17.68;100.00;100820.41;5262645;28;20056;-67
2023/07/31 04:05:49;;;;;;;14.43;5.93;;;;;;;17.69;100.00;100814.13;5264284;28;20040;-67
2023/07/31 04:08:21;;;;;;;11.73;6.47;;;;;;;17.70;100.00;100813.97;5265522;28;20070;-67
2023/07/31 04:10:52;;;;;;;13.25;5.90;;;;;;;17.74;100.00;100811.78;5260006;28;20505;-67
2023/07/31 04:13:24;;;;;;;15.13;5.40;;;;;;;17.77;100.00;100807.97;5262200;28;20048;-67
2023/07/31 04:15:55;;;;;;;14.18;6.18;;;;;;;17.77;100.00;100800.00;5263066;28;20052;-68
2023/07/31 04:18:26;;;;;;;12.02;5.75;;;;;;;17.77;100.00;100806.16;5265416;28;20052;-67
2023/07/31 04:20:58;;;;;;;12.57;5.60;;;;;;;17.83;100.00;100805.44;5267146;28;20089;-67
2023/07/31 04:23:29;;;;;;;9.93;5.00;;;;;;;17.82;100.00;100792.38;5264673;28;20024;-68
2023/07/31 04:26:01;;;;;;;12.65;5.53;;;;;;;17.83;100.00;100794.00;5259157;28;20101;-67
2023/07/31 04:28:32;;;;;;;13.80;5.63;;;;;;;17.86;100.00;100805.06;5262744;28;20120;-68
2023/07/31 04:31:03;;;;;;;10.40;5.45;;;;;;;17.89;100.00;100795.94;5261857;28;20041;-68
2023/07/31 04:33:35;;;;;;;15.30;5.55;;;;;;;17.90;100.00;100795.75;5263817;28;20041;-68
2023/07/31 04:36:06;;;;;;;16.13;6.25;;;;;;;17.91;100.00;100786.81;5261851;28;20025;-68
2023/07/31 04:38:37;;;;;;;11.85;5.53;;;;;;;17.94;100.00;100789.09;5264686;28;20068;-68
2023/07/31 04:41:09;;;;;;;9.90;6.20;;;;;;;17.96;100.00;100778.34;5263085;28;20017;-68
2023/07/31 04:43:40;;;;;;;12.18;5.13;;;;;;;18.01;100.00;100775.97;5263741;28;20573;-68
2023/07/31 04:46:12;;;;;;;11.18;5.60;;;;;;;18.01;100.00;100775.97;5268439;28;20314;-68
2023/07/31 04:48:43;;;;;;;12.90;5.30;;;;;;;18.03;100.00;100773.94;5267190;28;20052;-68
2023/07/31 04:51:14;;;;;;;15.57;6.30;;;;;;;18.06;100.00;100765.63;5264174;28;20024;-68
2023/07/31 04:53:45;;;;;;;10.88;5.85;;;;;;;18.08;100.00;100766.28;5267709;28;20020;-68
2023/07/31 04:56:17;;;;;;;14.95;5.65;;;;;;;18.11;100.00;100773.06;5259465;28;20120;-68
2023/07/31 04:58:48;;;;;;;22.20;6.65;;;;;;;18.09;100.00;100761.78;5267631;28;20028;-68
2023/07/31 05:01:19;;;;;;;11.07;5.67;;;;;;;18.11;100.00;100765.91;5267502;28;20060;-68
2023/07/31 05:03:50;;;;;;;10.57;5.50;;;;;;;18.14;100.00;100772.66;5265307;28;20702;-67
2023/07/31 05:06:22;;;;;;;10.98;5.18;;;;;;;18.11;100.00;100760.63;5262788;28;20404;-68
2023/07/31 05:08:53;;;;;;;12.60;4.90;;;;;;;18.11;100.00;100757.16;5264743;28;20024;-67
2023/07/31 05:11:24;;;;;;;10.77;5.50;;;;;;;18.10;100.00;100756.31;5264498;28;20025;-67
2023/07/31 05:13:55;;;;;;;14.67;5.80;;;;;;;18.15;100.00;100750.47;5268045;28;20408;-67
2023/07/31 05:16:27;;;;;;;10.60;5.47;;;;;;;18.10;100.00;100748.34;5263308;28;20676;-67
2023/07/31 05:18:58;;;;;;;12.23;5.60;;;;;;;18.15;100.00;100761.09;5267136;28;20750;-67
2023/07/31 05:21:29;;;;;;;10.20;5.38;;;;;;;18.15;100.00;100750.47;5267157;28;20024;-67
2023/07/31 05:24:01;;;;;;;9.70;5.28;;;;;;;18.16;100.00;100752.13;5264902;28;20032;-67
2023/07/31 05:26:32;;;;;;;9.20;5.03;;;;;;;18.12;100.00;100762.25;5266077;28;20052;-67
2023/07/31 05:29:03;;;;;;;10.63;4.90;;;;;;;18.14;100.00;100746.16;5263551;28;20035;-67
2023/07/31 05:31:35;;;;;;;12.35;4.60;;;;;;;18.13;100.00;100758.59;5256672;28;20710;-67
2023/07/31 05:34:06;;;;;;;9.80;5.18;;;;;;;18.14;100.00;100757.59;5269428;28;20047;-67
2023/07/31 05:36:37;;;;;;;6.45;3.95;;;;;;;18.16;100.00;100754.78;5261302;28;20451;-67
2023/07/31 05:39:08;;;;;;;8.07;4.18;;;;;;;18.09;100.00;100740.59;5259968;28;20029;-68
2023/07/31 05:41:40;;;;;;;7.80;4.40;;;;;;;18.10;100.00;100743.03;5263622;28;20382;-68
2023/07/31 05:44:11;;;;;;;8.00;3.90;;;;;;;18.11;100.00;100742.06;5269159;28;20358;-69
2023/07/31 05:46:42;;;;;;;8.82;3.78;;;;;;;18.08;100.00;100739.75;5258037;28;20621;-68
2023/07/31 05:49:13;;;;;;;7.22;4.10;;;;;;;18.09;100.00;100738.75;5266884;28;20047;-67
2023/07/31 05:51:45;;;;;;;6.70;4.13;;;;;;;18.13;100.00;100728.63;5259240;28;20810;-67
2023/07/31 05:54:16;;;;;;;5.85;3.47;;;;;;;18.08;100.00;100731.00;5262577;28;20043;-68
2023/07/31 05:56:47;;;;;;;5.85;3.60;;;;;;;18.10;100.00;100727.13;5254278;28;20056;-68
2023/07/31 05:59:18;;;;;;;4.85;3.10;;;;;;;18.12;100.00;100724.31;5260059;28;20120;-67
2023/07/31 06:01:50;;;;;;;6.23;3.40;;;;;;;18.16;100.00;100726.41;5265791;28;20036;-68
2023/07/31 06:04:21;;;;;;;5.95;3.47;;;;;;;18.14;100.00;100728.41;5263542;28;20286;-71
2023/07/31 06:06:52;;;;;;;5.45;2.67;;;;;;;18.14;100.00;100733.72;5258124;28;20033;-69
2023/07/31 06:09:24;;;;;;;4.57;3.05;;;;;;;18.15;100.00;100729.25;5258401;28;20028;-68
2023/07/31 06:11:55;;;;;;;5.93;3.30;;;;;;;18.13;100.00;100731.25;5258759;28;20033;-66
2023/07/31 06:14:26;;;;;;;4.55;2.80;;;;;;;18.15;100.00;100719.47;5258485;28;20609;-67
2023/07/31 06:16:58;;;;;;;5.63;2.95;;;;;;;18.17;100.00;100719.28;5259431;28;20037;-66
2023/07/31 06:19:29;;;;;;;3.75;2.75;;;;;;;18.18;100.00;100711.16;5258314;28;20024;-67
2023/07/31 06:22:00;;;;;;;4.25;2.90;;;;;;;18.22;100.00;100712.44;5257326;28;20935;-69
2023/07/31 06:24:31;;;;;;;6.18;3.10;;;;;;;18.16;100.00;100705.22;5262044;28;20394;-67
2023/07/31 06:27:03;;;;;;;4.20;2.53;;;;;;;18.23;100.00;100700.81;5264221;28;20874;-69
2023/07/31 06:29:35;;;;;;;3.93;2.97;;;;;;;18.29;100.00;100717.00;5259898;28;20091;-67
2023/07/31 06:32:07;;;;;;;4.05;3.33;;;;;;;18.28;100.00;100710.06;5267505;28;20116;-67
2023/07/31 06:34:38;;;;;;;5.07;3.50;;;;;;;18.26;100.00;100712.06;5260809;28;20040;-67
2023/07/31 06:37:09;;;;;;;4.95;3.15;;;;;;;18.31;100.00;100712.34;5257189;28;20079;-67
2023/07/31 06:39:40;;;;;;;7.97;3.58;;;;;;;18.27;100.00;100719.03;5260183;28;20077;-67
2023/07/31 06:42:12;;;;;;;4.22;3.10;;;;;;;18.34;100.00;100707.50;5259737;28;20027;-67
2023/07/31 06:44:43;;;;;;;6.00;3.50;;;;;;;18.32;100.00;100704.19;5256935;28;20028;-67
2023/07/31 06:47:14;;;;;;;4.57;3.63;;;;;;;18.29;100.00;100695.78;5263726;28;20029;-67
2023/07/31 06:49:45;;;;;;;4.18;3.00;;;;;;;18.31;100.00;100688.47;5266636;28;20024;-67
2023/07/31 06:52:17;;;;;;;4.60;2.90;;;;;;;18.32;100.00;100698.88;5264744;28;20028;-67
2023/07/31 06:55:03;;;;;;;4.15;3.10;;;;;;;18.52;100.00;100687.69;5260790;28;20076;-66
2023/07/31 06:57:34;;;;;;;4.78;3.42;;;;;;;18.32;100.00;100679.50;5263081;28;20536;-67
2023/07/31 07:00:06;;;;;;;4.90;3.00;;;;;;;18.36;100.00;100686.06;5257726;28;20025;-67
2023/07/31 07:02:37;;;;;;;4.23;2.97;;;;;;;18.36;100.00;100694.84;5260233;28;20048;-67
2023/07/31 07:05:09;;;;;;;3.70;2.95;;;;;;;18.42;100.00;100680.88;5259672;28;20108;-67
2023/07/31 07:07:42;;;;;;;7.25;3.58;;;;;;;18.45;100.00;100685.81;5258878;28;20028;-67
2023/07/31 07:10:13;;;;;;;3.70;2.92;;;;;;;18.46;100.00;100682.13;5265316;28;20625;-67
2023/07/31 07:12:45;;;;;;;7.18;3.40;;;;;;;18.49;100.00;100670.34;5266540;28;20035;-67
2023/07/31 07:15:17;;;;;;;4.47;3.00;;;;;;;18.47;100.00;100664.38;5257155;28;20039;-67
2023/07/31 07:17:48;;;;;;;4.75;3.08;;;;;;;18.51;100.00;100670.97;5266931;28;20028;-67
2023/07/31 07:20:20;;;;;;;4.45;2.88;;;;;;;18.52;100.00;100680.56;5262661;28;20541;-67
2023/07/31 07:22:51;;;;;;;3.67;2.63;;;;;;;18.46;100.00;100665.41;5259018;28;20125;-67
2023/07/31 07:25:22;;;;;;;4.07;3.03;;;;;;;18.44;100.00;100662.09;5261508;28;20024;-67
2023/07/31 07:27:53;;;;;;;4.93;3.55;;;;;;;18.50;100.00;100664.03;5256613;28;20021;-67
2023/07/31 07:30:25;;;;;;;4.93;3.28;;;;;;;18.45;100.00;100667.22;5260565;28;20033;-66
2023/07/31 07:32:56;;;;;;;5.65;3.38;;;;;;;18.51;100.00;100660.34;5255859;28;20063;-66
2023/07/31 07:35:27;;;;;;;5.75;3.47;;;;;;;18.41;100.00;100660.66;5257076;28;20507;-66
2023/07/31 07:37:59;;;;;;;4.13;3.27;;;;;;;18.46;100.00;100662.75;5257978;28;20250;-65
2023/07/31 07:40:30;;;;;;;4.63;3.20;;;;;;;18.44;100.00;100665.56;5261216;28;20020;-66
2023/07/31 07:43:01;;;;;;;4.38;3.60;;;;;;;18.47;100.00;100669.69;5260273;28;20040;-66
2023/07/31 07:45:32;;;;;;;7.95;3.60;;;;;;;18.52;100.00;100672.59;5264050;28;20074;-66
2023/07/31 07:48:04;;;;;;;4.55;3.35;;;;;;;18.58;100.00;100671.88;5264764;28;20039;-66
2023/07/31 07:50:35;;;;;;;6.68;3.95;;;;;;;18.58;100.00;100665.75;5265697;28;20037;-66
2023/07/31 07:53:06;;;;;;;7.38;4.00;;;;;;;18.60;100.00;100672.50;5266202;28;20036;-65
2023/07/31 07:55:38;;;;;;;5.90;4.25;;;;;;;18.65;100.00;100664.00;5262723;28;20493;-66
2023/07/31 07:58:09;;;;;;;7.40;4.10;;;;;;;18.61;100.00;100671.50;5251038;28;20709;-66
2023/07/31 08:00:40;;;;;;;6.13;4.28;;;;;;;18.63;100.00;100666.81;5262617;28;20033;-66
2023/07/31 08:03:12;;;;;;;5.95;4.43;;;;;;;18.61;100.00;100666.19;5260860;28;20032;-66
2023/07/31 08:05:43;;;;;;;8.67;4.27;;;;;;;18.62;100.00;100667.81;5254266;28;20086;-67
2023/07/31 08:08:18;;;;;;;7.43;4.68;;;;;;;18.61;100.00;100666.19;5240048;28;20044;-66
2023/07/31 08:10:50;;;;;;;6.22;4.30;;;;;;;18.67;100.00;100665.41;5237800;28;21464;-66
2023/07/31 08:13:21;;;;;;;5.70;4.07;;;;;;;18.74;100.00;100659.41;5238899;28;20037;-66
2023/07/31 08:15:52;;;;;;;5.97;3.90;;;;;;;18.69;100.00;100657.28;5241687;28;20063;-66
2023/07/31 08:18:24;;;;;;;7.03;4.88;;;;;;;18.70;100.00;100664.25;5260448;28;20535;-66
2023/07/31 08:20:55;;;;;;;7.22;3.83;;;;;;;18.67;100.00;100657.47;5256180;28;20048;-66
2023/07/31 08:23:26;;;;;;;7.18;4.00;;;;;;;18.67;100.00;100662.78;5257176;28;20133;-66
2023/07/31 08:25:57;;;;;;;6.28;4.43;;;;;;;18.61;100.00;100650.28;5252737;28;20457;-66
2023/07/31 08:28:29;;;;;;;7.73;3.90;;;;;;;18.59;100.00;100654.09;5255135;28;20111;-66
2023/07/31 08:31:00;;;;;;;4.68;4.10;;;;;;;18.62;100.00;100654.56;5260656;28;20052;-65
2023/07/31 08:33:31;;;;;;;6.10;4.35;;;;;;;18.70;100.00;100654.47;5263267;28;20495;-65
2023/07/31 08:36:03;;;;;;;6.43;4.13;;;;;;;18.68;100.00;100653.00;5260674;28;20058;-65
2023/07/31 08:38:34;;;;;;;7.13;4.30;;;;;;;18.68;100.00;100656.47;5261238;28;20078;-66
2023/07/31 08:41:05;;;;;;;5.72;4.53;;;;;;;18.68;100.00;100650.34;5263019;28;20025;-65
2023/07/31 08:43:37;;;;;;;5.80;4.07;;;;;;;18.64;100.00;100655.22;5263123;28;20075;-66
2023/07/31 08:46:09;;;;;;;5.60;3.97;;;;;;;18.68;100.00;100656.47;5262690;28;20486;-66
2023/07/31 08:48:42;;;;;;;6.78;4.20;;;;;;;18.68;100.00;100653.81;5262124;28;20374;-65
2023/07/31 08:51:15;;;;;;;6.43;4.20;;;;;;;18.67;100.00;100654.81;5265716;28;20025;-65
2023/07/31 08:53:46;;;;;;;8.20;4.50;;;;;;;18.74;100.00;100656.75;5261812;28;20125;-66
2023/07/31 08:56:18;;;;;;;6.27;4.70;;;;;;;18.71;100.00;100655.28;5261465;28;20051;-66
2023/07/31 08:58:52;;;;;;;6.73;5.33;;;;;;;18.79;100.00;100651.69;5264552;28;20021;-66
2023/07/31 09:01:24;;;;;;;7.68;4.72;;;;;;;18.82;100.00;100646.84;5261810;28;21463;-66
2023/07/31 09:03:57;;;;;;;8.27;4.85;;;;;;;18.87;100.00;100651.59;5261681;28;20128;-66
2023/07/31 09:06:30;;;;;;;7.60;4.50;;;;;;;18.87;100.00;100648.94;5266341;28;20116;-66
2023/07/31 09:09:01;;;;;;;8.02;4.43;;;;;;;18.91;100.00;100642.25;5264130;28;20779;-66
2023/07/31 09:11:32;;;;;;;6.95;4.13;;;;;;;18.93;100.00;100648.97;5262267;28;20028;-66
2023/07/31 09:14:08;;;;;;;8.03;4.33;;;;;;;18.93;100.00;100646.31;5264787;28;20053;-66
2023/07/31 09:16:54;;;;;;;8.07;4.72;;;;;;;19.15;100.00;100643.69;5262114;28;20554;-66
2023/07/31 09:19:27;;;;;;;5.55;4.03;;;;;;;18.99;100.00;100644.75;5264529;28;20028;-67
2023/07/31 09:21:58;;;;;;;8.55;4.50;;;;;;;19.03;100.00;100646.03;5260080;28;20537;-66
2023/07/31 09:24:31;;;;;;;8.07;5.45;;;;;;;19.05;100.00;100635.19;5262858;28;20115;-66
2023/07/31 09:27:02;;;;;;;;;;;;;;;19.71;100.00;100634.94;5261255;28;20028;-66
2023/07/31 09:29:33;;;;;;;6.15;4.47;;;;;;;19.11;100.00;100640.56;5261204;28;19921;-67
2023/07/31 09:32:16;;;;;;;7.50;4.53;;;;;;;19.30;100.00;100636.44;5260494;28;20397;-66
2023/07/31 09:34:47;;;;;;;7.25;4.85;;;;;;;19.30;100.00;100620.50;5258536;28;20040;-66
2023/07/31 09:37:18;;;;;;;8.30;4.70;;;;;;;19.31;100.00;100629.28;5255950;28;20020;-66
2023/07/31 09:39:54;;;;;;;6.87;4.40;;;;;;;19.24;100.00;100625.75;5260045;28;20044;-67
2023/07/31 09:42:26;;;;;;;7.30;4.72;;;;;;;19.21;100.00;100629.66;5263984;28;20027;-68
2023/07/31 09:45:09;;;;;;;8.38;4.78;;;;;;;19.43;100.00;100627.75;5264553;28;20029;-65
2023/07/31 09:47:46;;;;;;;8.65;4.22;;;;;;;19.36;100.00;100621.59;5261489;28;20123;-66
2023/07/31 09:50:24;;;;;;;8.02;4.95;;;;;;;19.37;100.00;100620.56;5258613;28;20009;-66
2023/07/31 09:52:55;;;;;;;7.72;4.03;;;;;;;19.33;100.00;100619.31;5262253;28;20040;-67
2023/07/31 09:55:27;;;;;;;6.80;4.78;;;;;;;19.45;100.00;100623.91;5263416;28;20496;-67
2023/07/31 09:57:59;;;;;;;5.67;4.33;;;;;;;19.45;100.00;100621.22;5262474;28;20032;-67
2023/07/31 10:00:31;;;;;;;7.40;4.00;;;;;;;19.48;100.00;100625.34;5260343;28;20079;-67
2023/07/31 10:03:07;;;;;;;7.10;3.97;;;;;;;19.64;100.00;100613.63;5260282;28;20071;-68
2023/07/31 10:05:53;;;;;;;5.82;4.10;;;;;;;19.75;100.00;100612.25;5258429;28;20050;-68
2023/07/31 10:08:29;;;;;;;7.72;4.07;;;;;;;19.66;100.00;100611.56;5261224;28;20075;-68
2023/07/31 10:11:05;;;;;;;5.82;3.75;;;;;;;19.66;100.00;100612.44;5263607;28;20133;-67
2023/07/31 10:13:37;;;;;;;6.85;4.30;;;;;;;19.67;100.00;100607.94;5263612;28;20025;-68
2023/07/31 10:16:09;;;;;;;4.97;3.50;;;;;;;19.81;100.00;100609.66;5264572;28;20029;-68
2023/07/31 10:18:41;;;;;;;4.75;3.83;;;;;;;19.92;100.00;100605.59;5260212;28;20095;-68
2023/07/31 10:21:13;;;;;;;4.40;3.65;;;;;;;19.84;100.00;100611.06;5264279;28;20023;-69
2023/07/31 10:23:46;;;;;;;6.03;3.67;;;;;;;19.96;100.00;100601.50;5264744;28;20024;-68
2023/07/31 10:26:19;;;;;;;5.75;3.50;;;;;;;19.91;100.00;100610.09;5256556;28;20024;-68
2023/07/31 10:28:52;;;;;;;6.03;3.42;;;;;;;20.00;100.00;100600.13;5258688;28;20552;-67
2023/07/31 10:31:24;;;;;;;6.60;3.42;;;;;;;20.00;100.00;100602.78;5224622;28;20029;-67
2023/07/31 10:33:58;;;;;;;6.70;3.30;;;;;;;20.17;100.00;100605.91;5228622;28;20387;-68
2023/07/31 10:36:30;;;;;;;5.82;3.03;;;;;;;20.12;100.00;100617.16;5229100;28;20029;-69
2023/07/31 10:39:04;;;;;;;4.90;3.47;;;;;;;20.22;100.00;100600.00;5230496;28;20072;-67
2023/07/31 10:41:36;;;;;;;4.63;2.97;;;;;;;20.14;100.00;100609.78;5230668;28;20544;-68
2023/07/31 10:44:07;;;;;;;4.93;3.67;;;;;;;20.13;100.00;100612.66;5229795;28;20502;-68
2023/07/31 10:46:38;;;;;;;5.20;3.30;;;;;;;20.23;100.00;100609.59;5232568;28;20029;-68
2023/07/31 10:49:09;;;;;;;5.30;3.47;;;;;;;20.35;100.00;100610.69;5232502;28;20021;-67
2023/07/31 10:51:42;;;;;;;5.53;3.13;;;;;;;20.41;100.00;100623.19;5229686;28;20033;-70
2023/07/31 10:54:15;;;;;;;5.43;3.35;;;;;;;20.36;100.00;100607.00;5231712;28;20037;-67
2023/07/31 10:56:47;;;;;;;6.00;3.40;;;;;;;20.33;100.00;100608.22;5231556;28;20036;-68
2023/07/31 10:59:20;;;;;;;7.18;3.58;;;;;;;20.26;100.00;100603.88;5231994;28;20520;-68
2023/07/31 11:01:58;;;;;;;;;;;;;;;20.96;100.00;100607.97;5230767;28;20025;-68
2023/07/31 11:04:30;;;;;;;4.78;3.17;;;;;;;20.52;100.00;100603.19;5228961;28;19919;-68
2023/07/31 11:07:04;;;;;;;6.65;3.70;;;;;;;20.70;100.00;100600.78;5230403;28;20100;-70
2023/07/31 11:09:35;;;;;;;7.97;3.90;;;;;;;20.76;100.00;100597.31;5232951;28;20140;-69
2023/07/31 11:12:07;;;;;;;5.70;3.63;;;;;;;20.69;100.00;100601.81;5230573;28;20033;-68
2023/07/31 11:14:38;;;;;;;7.80;3.50;;;;;;;20.67;100.00;100609.16;5231340;28;20437;-68
2023/07/31 11:17:10;;;;;;;6.17;3.50;;;;;;;20.58;100.00;100599.72;5210497;28;20025;-68
2023/07/31 11:19:41;;;;;;;7.57;3.47;;;;;;;20.62;100.00;100600.97;5231879;28;20033;-68
2023/07/31 11:22:13;;;;;;;4.63;3.77;;;;;;;20.65;100.00;100601.38;5231982;28;20033;-68
2023/07/31 11:24:44;;;;;;;7.57;3.83;;;;;;;20.69;100.00;100606.31;5231344;28;20033;-67
2023/07/31 11:27:16;;;;;;;6.63;3.73;;;;;;;20.69;100.00;100591.16;5232107;28;20047;-69
2023/07/31 11:29:47;;;;;;;5.20;3.43;;;;;;;20.76;100.00;100591.13;5234846;28;20053;-69
2023/07/31 11:32:18;;;;;;;5.93;3.57;;;;;;;20.98;100.00;100579.28;5238210;28;20021;-70
2023/07/31 11:34:53;;;;;;;4.63;3.03;;;;;;;21.26;100.00;100573.75;5230565;28;20457;-68
2023/07/31 11:37:39;;;;;;;5.18;3.70;;;;;;;21.34;100.00;100572.75;5234593;28;20048;-69